sensor_id;sensor_type;location;lat;lon;timestamp;P1;durP1;ratioP1;P2;durP2;ratioP2
72559;SDS011;62987;52.382;9.752;2023-06-22T09:40:19;9.02;;;5.35;;
72559;SDS011;62987;52.382;9.752;2023-06-22T09:42:48;9.48;;;4.60;;
72559;SDS011;62987;52.382;9.752;2023-06-22T09:45:16;9.35;;;4.68;;
72559;SDS011;62987;52.382;9.752;2023-06-22T09:47:44;9.93;;;5.72;;
72559;SDS011;62987;52.382;9.752;2023-06-22T09:50:14;8.38;;;4.63;;
72559;SDS011;62987;52.382;9.752;2023-06-22T09:52:43;8.88;;;5.05;;
72559;SDS011;62987;52.382;9.752;2023-06-22T09:55:14;7.03;;;4.22;;
72559;SDS011;62987;52.382;9.752;2023-06-22T09:57:44;9.38;;;4.90;;
72559;SDS011;62987;52.382;9.752;2023-06-22T10:00:13;8.30;;;5.15;;
72559;SDS011;62987;52.382;9.752;2023-06-22T10:02:43;8.60;;;4.78;;
72559;SDS011;62987;52.382;9.752;2023-06-22T10:05:14;9.63;;;5.07;;
72559;SDS011;62987;52.382;9.752;2023-06-22T10:07:43;9.10;;;5.53;;
72559;SDS011;62987;52.382;9.752;2023-06-22T10:10:11;9.00;;;5.32;;
72559;SDS011;62987;52.382;9.752;2023-06-22T10:12:45;9.32;;;5.40;;
72559;SDS011;62987;52.382;9.752;2023-06-22T10:15:15;8.68;;;5.05;;
72559;SDS011;62987;52.382;9.752;2023-06-22T10:17:43;11.00;;;6.03;;
72559;SDS011;62987;52.382;9.752;2023-06-22T10:20:12;10.77;;;5.57;;
72559;SDS011;62987;52.382;9.752;2023-06-22T10:22:44;10.57;;;5.07;;
72559;SDS011;62987;52.382;9.752;2023-06-22T10:25:13;7.63;;;4.88;;
72559;SDS011;62987;52.382;9.752;2023-06-22T10:27:41;11.38;;;4.78;;
72559;SDS011;62987;52.382;9.752;2023-06-22T10:30:11;25.70;;;10.48;;
72559;SDS011;62987;52.382;9.752;2023-06-22T10:32:40;11.82;;;5.40;;
72559;SDS011;62987;52.382;9.752;2023-06-22T10:35:10;8.68;;;4.97;;
72559;SDS011;62987;52.382;9.752;2023-06-22T10:37:40;15.68;;;6.43;;
72559;SDS011;62987;52.382;9.752;2023-06-22T10:40:10;9.48;;;4.85;;
72559;SDS011;62987;52.382;9.752;2023-06-22T10:42:39;11.05;;;5.85;;
72559;SDS011;62987;52.382;9.752;2023-06-22T10:45:07;11.15;;;5.40;;
72559;SDS011;62987;52.382;9.752;2023-06-22T10:47:37;8.00;;;5.00;;
72559;SDS011;62987;52.382;9.752;2023-06-22T10:50:06;10.98;;;5.35;;
72559;SDS011;62987;52.382;9.752;2023-06-22T10:52:34;10.60;;;5.28;;
72559;SDS011;62987;52.382;9.752;2023-06-22T10:55:03;8.32;;;4.78;;
72559;SDS011;62987;52.382;9.752;2023-06-22T10:57:31;9.82;;;5.43;;
72559;SDS011;62987;52.382;9.752;2023-06-22T10:59:59;9.23;;;5.38;;
72559;SDS011;62987;52.382;9.752;2023-06-22T11:02:28;8.80;;;5.00;;
72559;SDS011;62987;52.382;9.752;2023-06-22T11:04:58;9.13;;;5.88;;
72559;SDS011;62987;52.382;9.752;2023-06-22T11:07:27;10.80;;;6.05;;
72559;SDS011;62987;52.382;9.752;2023-06-22T11:09:56;10.70;;;5.25;;
72559;SDS011;62987;52.382;9.752;2023-06-22T11:12:24;11.48;;;5.85;;
72559;SDS011;62987;52.382;9.752;2023-06-22T11:14:52;9.05;;;5.43;;
72559;SDS011;62987;52.382;9.752;2023-06-22T11:17:20;10.35;;;5.18;;
72559;SDS011;62987;52.382;9.752;2023-06-22T11:19:48;9.32;;;5.18;;
72559;SDS011;62987;52.382;9.752;2023-06-22T11:22:17;8.95;;;6.00;;
72559;SDS011;62987;52.382;9.752;2023-06-22T11:24:45;8.95;;;5.32;;
72559;SDS011;62987;52.382;9.752;2023-06-22T11:27:13;9.50;;;6.13;;
72559;SDS011;62987;52.382;9.752;2023-06-22T11:29:41;15.13;;;6.55;;
72559;SDS011;62987;52.382;9.752;2023-06-22T11:32:11;7.80;;;4.78;;
72559;SDS011;62987;52.382;9.752;2023-06-22T11:34:40;9.68;;;5.63;;
72559;SDS011;62987;52.382;9.752;2023-06-22T11:37:08;7.70;;;5.13;;
72559;SDS011;62987;52.382;9.752;2023-06-22T11:39:37;7.93;;;5.30;;
72559;SDS011;62987;52.382;9.752;2023-06-22T11:42:18;8.90;;;5.20;;
72559;SDS011;62987;52.382;9.752;2023-06-22T11:44:46;11.48;;;6.03;;
72559;SDS011;62987;52.382;9.752;2023-06-22T11:47:14;9.63;;;6.05;;
72559;SDS011;62987;52.382;9.752;2023-06-22T11:49:42;11.32;;;5.75;;
72559;SDS011;62987;52.382;9.752;2023-06-22T11:52:10;10.35;;;5.60;;
72559;SDS011;62987;52.382;9.752;2023-06-22T11:54:41;8.98;;;4.93;;
72559;SDS011;62987;52.382;9.752;2023-06-22T11:57:09;9.60;;;6.22;;
72559;SDS011;62987;52.382;9.752;2023-06-22T11:59:39;9.93;;;5.88;;
72559;SDS011;62987;52.382;9.752;2023-06-22T12:02:07;9.13;;;5.68;;
72559;SDS011;62987;52.382;9.752;2023-06-22T12:04:36;8.85;;;5.85;;
72559;SDS011;62987;52.382;9.752;2023-06-22T12:07:06;9.90;;;5.25;;
72559;SDS011;62987;52.382;9.752;2023-06-22T12:09:34;10.00;;;6.07;;
72559;SDS011;62987;52.382;9.752;2023-06-22T12:12:03;9.38;;;5.50;;
72559;SDS011;62987;52.382;9.752;2023-06-22T12:14:32;9.68;;;6.38;;
72559;SDS011;62987;52.382;9.752;2023-06-22T12:17:00;8.73;;;5.13;;
72559;SDS011;62987;52.382;9.752;2023-06-22T12:19:31;8.90;;;5.95;;
72559;SDS011;62987;52.382;9.752;2023-06-22T12:21:59;8.48;;;5.68;;
72559;SDS011;62987;52.382;9.752;2023-06-22T12:24:27;9.07;;;5.57;;
72559;SDS011;62987;52.382;9.752;2023-06-22T12:26:55;8.85;;;5.65;;
72559;SDS011;62987;52.382;9.752;2023-06-22T12:29:25;11.32;;;6.07;;
72559;SDS011;62987;52.382;9.752;2023-06-22T12:31:53;9.00;;;5.07;;
72559;SDS011;62987;52.382;9.752;2023-06-22T12:34:21;9.77;;;5.97;;
72559;SDS011;62987;52.382;9.752;2023-06-22T12:36:49;8.10;;;4.95;;
72559;SDS011;62987;52.382;9.752;2023-06-22T12:39:17;8.05;;;4.80;;
72559;SDS011;62987;52.382;9.752;2023-06-22T12:41:45;8.68;;;5.47;;
72559;SDS011;62987;52.382;9.752;2023-06-22T12:44:14;8.05;;;4.68;;
72559;SDS011;62987;52.382;9.752;2023-06-22T12:46:43;7.13;;;4.85;;
72559;SDS011;62987;52.382;9.752;2023-06-22T12:49:11;9.00;;;5.22;;
72559;SDS011;62987;52.382;9.752;2023-06-22T12:51:39;9.90;;;4.88;;
72559;SDS011;62987;52.382;9.752;2023-06-22T12:54:09;9.38;;;5.50;;
72559;SDS011;62987;52.382;9.752;2023-06-22T12:56:39;9.30;;;5.28;;
72559;SDS011;62987;52.382;9.752;2023-06-22T12:59:10;8.40;;;5.30;;
72559;SDS011;62987;52.382;9.752;2023-06-22T13:01:38;8.57;;;5.38;;
72559;SDS011;62987;52.382;9.752;2023-06-22T13:04:08;10.57;;;6.15;;
72559;SDS011;62987;52.382;9.752;2023-06-22T13:06:37;8.10;;;5.90;;
72559;SDS011;62987;52.382;9.752;2023-06-22T13:09:06;9.05;;;5.18;;
72559;SDS011;62987;52.382;9.752;2023-06-22T13:11:47;10.30;;;5.65;;
72559;SDS011;62987;52.382;9.752;2023-06-22T13:14:15;9.60;;;5.72;;
72559;SDS011;62987;52.382;9.752;2023-06-22T13:16:43;8.68;;;5.45;;
72559;SDS011;62987;52.382;9.752;2023-06-22T13:19:13;9.77;;;5.80;;
72559;SDS011;62987;52.382;9.752;2023-06-22T13:21:41;11.45;;;5.72;;
72559;SDS011;62987;52.382;9.752;2023-06-22T13:24:09;9.13;;;6.30;;
72559;SDS011;62987;52.382;9.752;2023-06-22T13:26:38;9.57;;;5.07;;
72559;SDS011;62987;52.382;9.752;2023-06-22T13:29:09;11.23;;;6.13;;
72559;SDS011;62987;52.382;9.752;2023-06-22T13:31:37;8.57;;;5.35;;
72559;SDS011;62987;52.382;9.752;2023-06-22T13:34:05;14.77;;;6.28;;
72559;SDS011;62987;52.382;9.752;2023-06-22T13:36:34;10.07;;;5.88;;
72559;SDS011;62987;52.382;9.752;2023-06-22T13:39:04;10.77;;;5.93;;
72559;SDS011;62987;52.382;9.752;2023-06-22T13:41:32;9.20;;;5.85;;
72559;SDS011;62987;52.382;9.752;2023-06-22T13:44:00;9.68;;;5.93;;
72559;SDS011;62987;52.382;9.752;2023-06-22T13:46:28;10.98;;;5.95;;
72559;SDS011;62987;52.382;9.752;2023-06-22T13:48:57;10.10;;;6.38;;
72559;SDS011;62987;52.382;9.752;2023-06-22T13:51:25;10.15;;;5.60;;
72559;SDS011;62987;52.382;9.752;2023-06-22T13:53:54;8.93;;;5.85;;
72559;SDS011;62987;52.382;9.752;2023-06-22T13:56:22;10.00;;;5.82;;
72559;SDS011;62987;52.382;9.752;2023-06-22T13:58:50;9.82;;;5.82;;
72559;SDS011;62987;52.382;9.752;2023-06-22T14:01:18;9.90;;;5.85;;
72559;SDS011;62987;52.382;9.752;2023-06-22T14:03:47;9.50;;;5.50;;
72559;SDS011;62987;52.382;9.752;2023-06-22T14:06:16;10.60;;;5.60;;
72559;SDS011;62987;52.382;9.752;2023-06-22T14:08:44;8.95;;;5.72;;
72559;SDS011;62987;52.382;9.752;2023-06-22T14:11:13;9.20;;;6.00;;
72559;SDS011;62987;52.382;9.752;2023-06-22T14:13:41;11.45;;;6.45;;
72559;SDS011;62987;52.382;9.752;2023-06-22T14:16:09;10.27;;;6.22;;
72559;SDS011;62987;52.382;9.752;2023-06-22T14:18:37;13.80;;;7.07;;
72559;SDS011;62987;52.382;9.752;2023-06-22T14:21:05;10.05;;;6.38;;
72559;SDS011;62987;52.382;9.752;2023-06-22T14:23:35;10.32;;;6.93;;
72559;SDS011;62987;52.382;9.752;2023-06-22T14:26:04;11.10;;;6.95;;
72559;SDS011;62987;52.382;9.752;2023-06-22T14:28:33;14.77;;;8.27;;
72559;SDS011;62987;52.382;9.752;2023-06-22T14:31:01;13.75;;;7.93;;
72559;SDS011;62987;52.382;9.752;2023-06-22T14:33:29;11.30;;;7.18;;
72559;SDS011;62987;52.382;9.752;2023-06-22T14:35:57;12.75;;;7.75;;
72559;SDS011;62987;52.382;9.752;2023-06-22T14:38:25;12.27;;;7.93;;
72559;SDS011;62987;52.382;9.752;2023-06-22T14:40:54;12.05;;;6.93;;
72559;SDS011;62987;52.382;9.752;2023-06-22T14:43:44;11.90;;;7.28;;
72559;SDS011;62987;52.382;9.752;2023-06-22T14:46:14;12.23;;;7.72;;
72559;SDS011;62987;52.382;9.752;2023-06-22T14:48:42;12.13;;;7.00;;
72559;SDS011;62987;52.382;9.752;2023-06-22T14:51:11;12.48;;;6.80;;
72559;SDS011;62987;52.382;9.752;2023-06-22T14:53:44;9.57;;;6.22;;
72559;SDS011;62987;52.382;9.752;2023-06-22T14:56:13;11.57;;;6.18;;
72559;SDS011;62987;52.382;9.752;2023-06-22T14:58:44;10.15;;;6.57;;
72559;SDS011;62987;52.382;9.752;2023-06-22T15:01:13;10.98;;;6.15;;
72559;SDS011;62987;52.382;9.752;2023-06-22T15:03:43;9.02;;;5.90;;
72559;SDS011;62987;52.382;9.752;2023-06-22T15:06:12;10.85;;;6.80;;
72559;SDS011;62987;52.382;9.752;2023-06-22T15:08:40;10.52;;;6.78;;
72559;SDS011;62987;52.382;9.752;2023-06-22T15:11:09;12.63;;;7.40;;
72559;SDS011;62987;52.382;9.752;2023-06-22T15:13:38;11.02;;;6.88;;
72559;SDS011;62987;52.382;9.752;2023-06-22T15:16:08;10.70;;;6.57;;
72559;SDS011;62987;52.382;9.752;2023-06-22T15:18:42;10.80;;;6.35;;
72559;SDS011;62987;52.382;9.752;2023-06-22T15:21:11;11.07;;;7.07;;
72559;SDS011;62987;52.382;9.752;2023-06-22T15:23:40;13.55;;;7.43;;
72559;SDS011;62987;52.382;9.752;2023-06-22T15:26:08;15.07;;;7.75;;
72559;SDS011;62987;52.382;9.752;2023-06-22T15:28:36;15.57;;;8.70;;
72559;SDS011;62987;52.382;9.752;2023-06-22T15:31:11;13.05;;;8.25;;
72559;SDS011;62987;52.382;9.752;2023-06-22T15:33:40;14.55;;;8.68;;
72559;SDS011;62987;52.382;9.752;2023-06-22T15:36:08;13.77;;;8.30;;
72559;SDS011;62987;52.382;9.752;2023-06-22T15:38:36;17.10;;;9.57;;
72559;SDS011;62987;52.382;9.752;2023-06-22T15:41:04;18.10;;;10.68;;
72559;SDS011;62987;52.382;9.752;2023-06-22T15:43:32;17.15;;;10.43;;
72559;SDS011;62987;52.382;9.752;2023-06-22T15:46:00;17.20;;;9.70;;
72559;SDS011;62987;52.382;9.752;2023-06-22T15:48:29;19.10;;;11.45;;
72559;SDS011;62987;52.382;9.752;2023-06-22T15:50:59;18.85;;;12.13;;
72559;SDS011;62987;52.382;9.752;2023-06-22T15:53:28;20.52;;;11.27;;
72559;SDS011;62987;52.382;9.752;2023-06-22T15:55:56;20.38;;;11.43;;
72559;SDS011;62987;52.382;9.752;2023-06-22T15:58:24;20.88;;;10.63;;
72559;SDS011;62987;52.382;9.752;2023-06-22T16:00:52;18.75;;;10.75;;
72559;SDS011;62987;52.382;9.752;2023-06-22T16:03:21;19.55;;;10.13;;
72559;SDS011;62987;52.382;9.752;2023-06-22T16:05:51;20.65;;;10.23;;
72559;SDS011;62987;52.382;9.752;2023-06-22T16:08:19;19.88;;;11.20;;
72559;SDS011;62987;52.382;9.752;2023-06-22T16:10:51;15.35;;;9.77;;
72559;SDS011;62987;52.382;9.752;2023-06-22T16:13:22;18.48;;;10.73;;
72559;SDS011;62987;52.382;9.752;2023-06-22T16:15:50;18.45;;;9.70;;
72559;SDS011;62987;52.382;9.752;2023-06-22T16:18:18;16.73;;;10.93;;
72559;SDS011;62987;52.382;9.752;2023-06-22T16:20:46;16.52;;;10.20;;
72559;SDS011;62987;52.382;9.752;2023-06-22T16:23:16;18.33;;;10.23;;
72559;SDS011;62987;52.382;9.752;2023-06-22T16:25:44;18.45;;;10.65;;
72559;SDS011;62987;52.382;9.752;2023-06-22T16:28:12;17.33;;;9.57;;
72559;SDS011;62987;52.382;9.752;2023-06-22T16:30:42;17.73;;;11.45;;
72559;SDS011;62987;52.382;9.752;2023-06-22T16:33:16;17.40;;;11.10;;
72559;SDS011;62987;52.382;9.752;2023-06-22T16:35:44;20.60;;;11.85;;
72559;SDS011;62987;52.382;9.752;2023-06-22T16:38:12;23.65;;;12.43;;
72559;SDS011;62987;52.382;9.752;2023-06-22T16:40:42;21.83;;;11.93;;
72559;SDS011;62987;52.382;9.752;2023-06-22T16:43:10;23.63;;;12.48;;
72559;SDS011;62987;52.382;9.752;2023-06-22T16:45:38;22.70;;;12.13;;
72559;SDS011;62987;52.382;9.752;2023-06-22T16:48:06;17.38;;;10.13;;
72559;SDS011;62987;52.382;9.752;2023-06-22T16:50:34;19.10;;;10.27;;
72559;SDS011;62987;52.382;9.752;2023-06-22T16:53:05;19.38;;;10.85;;
72559;SDS011;62987;52.382;9.752;2023-06-22T16:55:33;19.40;;;10.55;;
72559;SDS011;62987;52.382;9.752;2023-06-22T16:58:05;18.67;;;10.57;;
72559;SDS011;62987;52.382;9.752;2023-06-22T17:00:33;16.88;;;9.55;;
72559;SDS011;62987;52.382;9.752;2023-06-22T17:03:03;14.68;;;8.63;;
72559;SDS011;62987;52.382;9.752;2023-06-22T17:05:38;14.63;;;8.73;;
72559;SDS011;62987;52.382;9.752;2023-06-22T17:08:07;16.15;;;9.10;;
72559;SDS011;62987;52.382;9.752;2023-06-22T17:10:40;14.23;;;9.07;;
72559;SDS011;62987;52.382;9.752;2023-06-22T17:13:10;20.35;;;10.55;;
72559;SDS011;62987;52.382;9.752;2023-06-22T17:15:40;17.17;;;9.32;;
72559;SDS011;62987;52.382;9.752;2023-06-22T17:18:09;17.25;;;10.32;;
72559;SDS011;62987;52.382;9.752;2023-06-22T17:20:42;19.83;;;11.43;;
72559;SDS011;62987;52.382;9.752;2023-06-22T17:23:10;16.92;;;10.13;;
72559;SDS011;62987;52.382;9.752;2023-06-22T17:25:40;14.38;;;8.90;;
72559;SDS011;62987;52.382;9.752;2023-06-22T17:28:11;22.02;;;10.00;;
72559;SDS011;62987;52.382;9.752;2023-06-22T17:30:39;16.48;;;9.55;;
72559;SDS011;62987;52.382;9.752;2023-06-22T17:33:08;17.13;;;9.38;;
72559;SDS011;62987;52.382;9.752;2023-06-22T17:35:45;16.27;;;9.25;;
72559;SDS011;62987;52.382;9.752;2023-06-22T17:38:19;17.98;;;10.02;;
72559;SDS011;62987;52.382;9.752;2023-06-22T17:40:48;15.32;;;9.63;;
72559;SDS011;62987;52.382;9.752;2023-06-22T17:43:19;17.27;;;9.48;;
72559;SDS011;62987;52.382;9.752;2023-06-22T17:45:47;17.02;;;10.15;;
72559;SDS011;62987;52.382;9.752;2023-06-22T17:48:15;16.25;;;8.95;;
72559;SDS011;62987;52.382;9.752;2023-06-22T17:50:48;16.73;;;9.23;;
72559;SDS011;62987;52.382;9.752;2023-06-22T17:53:16;17.48;;;10.10;;
72559;SDS011;62987;52.382;9.752;2023-06-22T17:55:48;19.33;;;11.25;;
72559;SDS011;62987;52.382;9.752;2023-06-22T17:58:21;17.92;;;10.65;;
72559;SDS011;62987;52.382;9.752;2023-06-22T18:00:49;25.33;;;10.18;;
72559;SDS011;62987;52.382;9.752;2023-06-22T18:03:17;17.42;;;9.50;;
72559;SDS011;62987;52.382;9.752;2023-06-22T18:05:51;13.88;;;8.68;;
72559;SDS011;62987;52.382;9.752;2023-06-22T18:08:23;16.50;;;9.60;;
72559;SDS011;62987;52.382;9.752;2023-06-22T18:10:53;18.13;;;9.02;;
72559;SDS011;62987;52.382;9.752;2023-06-22T18:15:57;13.88;;;9.10;;
72559;SDS011;62987;52.382;9.752;2023-06-22T18:18:26;15.95;;;9.30;;
72559;SDS011;62987;52.382;9.752;2023-06-22T18:20:54;14.95;;;8.98;;
72559;SDS011;62987;52.382;9.752;2023-06-22T18:23:26;15.40;;;8.80;;
72559;SDS011;62987;52.382;9.752;2023-06-22T18:26:03;15.75;;;8.77;;
72559;SDS011;62987;52.382;9.752;2023-06-22T18:28:36;15.48;;;9.77;;
72559;SDS011;62987;52.382;9.752;2023-06-22T18:31:08;14.75;;;8.70;;
72559;SDS011;62987;52.382;9.752;2023-06-22T18:33:37;19.02;;;9.55;;
72559;SDS011;62987;52.382;9.752;2023-06-22T18:36:05;17.85;;;9.02;;
72559;SDS011;62987;52.382;9.752;2023-06-22T18:38:34;14.35;;;8.68;;
72559;SDS011;62987;52.382;9.752;2023-06-22T18:41:03;15.43;;;8.77;;
72559;SDS011;62987;52.382;9.752;2023-06-22T18:43:31;16.15;;;9.32;;
72559;SDS011;62987;52.382;9.752;2023-06-22T18:51:54;21.30;;;10.55;;
72559;SDS011;62987;52.382;9.752;2023-06-22T18:54:23;16.73;;;10.13;;
72559;SDS011;62987;52.382;9.752;2023-06-22T18:56:59;18.83;;;10.30;;
72559;SDS011;62987;52.382;9.752;2023-06-22T18:59:47;16.17;;;9.50;;
72559;SDS011;62987;52.382;9.752;2023-06-22T19:05:16;18.02;;;10.88;;
72559;SDS011;62987;52.382;9.752;2023-06-22T19:08:00;19.10;;;11.18;;
72559;SDS011;62987;52.382;9.752;2023-06-22T19:10:40;20.15;;;11.68;;
72559;SDS011;62987;52.382;9.752;2023-06-22T19:16:16;19.15;;;10.93;;
72559;SDS011;62987;52.382;9.752;2023-06-22T19:18:46;21.25;;;11.68;;
72559;SDS011;62987;52.382;9.752;2023-06-22T19:21:20;20.08;;;11.23;;
72559;SDS011;62987;52.382;9.752;2023-06-22T19:23:50;21.40;;;11.00;;
72559;SDS011;62987;52.382;9.752;2023-06-22T19:26:33;18.25;;;10.38;;
72559;SDS011;62987;52.382;9.752;2023-06-22T19:29:14;18.15;;;9.57;;
72559;SDS011;62987;52.382;9.752;2023-06-22T19:31:53;17.50;;;9.95;;
72559;SDS011;62987;52.382;9.752;2023-06-22T19:34:23;19.55;;;10.88;;
72559;SDS011;62987;52.382;9.752;2023-06-22T19:36:57;19.15;;;10.75;;
72559;SDS011;62987;52.382;9.752;2023-06-22T19:39:34;18.88;;;10.35;;
72559;SDS011;62987;52.382;9.752;2023-06-22T19:42:09;20.55;;;11.05;;
72559;SDS011;62987;52.382;9.752;2023-06-22T19:44:37;19.42;;;11.02;;
72559;SDS011;62987;52.382;9.752;2023-06-22T19:47:07;17.80;;;10.75;;
72559;SDS011;62987;52.382;9.752;2023-06-22T19:49:35;19.90;;;10.23;;
72559;SDS011;62987;52.382;9.752;2023-06-22T19:52:07;15.23;;;9.27;;
72559;SDS011;62987;52.382;9.752;2023-06-22T19:54:38;19.30;;;10.40;;
72559;SDS011;62987;52.382;9.752;2023-06-22T19:57:07;17.13;;;9.15;;
72559;SDS011;62987;52.382;9.752;2023-06-22T19:59:35;17.85;;;10.45;;
72559;SDS011;62987;52.382;9.752;2023-06-22T20:02:08;18.15;;;9.65;;
72559;SDS011;62987;52.382;9.752;2023-06-22T20:04:36;20.20;;;10.48;;
72559;SDS011;62987;52.382;9.752;2023-06-22T20:07:06;18.75;;;9.60;;
72559;SDS011;62987;52.382;9.752;2023-06-22T20:09:34;18.20;;;10.10;;
72559;SDS011;62987;52.382;9.752;2023-06-22T20:12:08;16.48;;;9.48;;
72559;SDS011;62987;52.382;9.752;2023-06-22T20:14:36;18.65;;;9.85;;
72559;SDS011;62987;52.382;9.752;2023-06-22T20:17:04;16.25;;;10.15;;
72559;SDS011;62987;52.382;9.752;2023-06-22T20:19:37;19.45;;;10.18;;
72559;SDS011;62987;52.382;9.752;2023-06-22T20:22:08;18.58;;;9.68;;
72559;SDS011;62987;52.382;9.752;2023-06-22T20:24:36;19.52;;;10.40;;
72559;SDS011;62987;52.382;9.752;2023-06-22T20:27:09;19.02;;;10.55;;
72559;SDS011;62987;52.382;9.752;2023-06-22T20:29:38;16.60;;;10.32;;
72559;SDS011;62987;52.382;9.752;2023-06-22T20:32:10;16.50;;;9.73;;
72559;SDS011;62987;52.382;9.752;2023-06-22T20:34:41;16.05;;;10.70;;
72559;SDS011;62987;52.382;9.752;2023-06-22T20:37:11;16.73;;;9.00;;
72559;SDS011;62987;52.382;9.752;2023-06-22T20:39:41;15.77;;;8.63;;
72559;SDS011;62987;52.382;9.752;2023-06-22T20:42:14;15.02;;;9.45;;
72559;SDS011;62987;52.382;9.752;2023-06-22T20:44:43;14.85;;;8.65;;
72559;SDS011;62987;52.382;9.752;2023-06-22T20:47:17;16.33;;;9.48;;
72559;SDS011;62987;52.382;9.752;2023-06-22T20:49:48;14.48;;;8.43;;
72559;SDS011;62987;52.382;9.752;2023-06-22T20:52:16;15.13;;;8.35;;
72559;SDS011;62987;52.382;9.752;2023-06-22T20:54:45;13.98;;;8.20;;
72559;SDS011;62987;52.382;9.752;2023-06-22T20:57:13;16.52;;;8.07;;
72559;SDS011;62987;52.382;9.752;2023-06-22T20:59:41;14.20;;;7.35;;
72559;SDS011;62987;52.382;9.752;2023-06-22T21:02:09;14.88;;;7.40;;
72559;SDS011;62987;52.382;9.752;2023-06-22T21:04:38;12.95;;;7.10;;
72559;SDS011;62987;52.382;9.752;2023-06-22T21:07:07;11.60;;;6.85;;
72559;SDS011;62987;52.382;9.752;2023-06-22T21:09:35;11.05;;;5.97;;
72559;SDS011;62987;52.382;9.752;2023-06-22T21:12:17;12.43;;;6.20;;
72559;SDS011;62987;52.382;9.752;2023-06-22T21:14:45;10.85;;;6.05;;
72559;SDS011;62987;52.382;9.752;2023-06-22T21:17:13;14.38;;;7.05;;
72559;SDS011;62987;52.382;9.752;2023-06-22T21:19:41;15.65;;;7.28;;
72559;SDS011;62987;52.382;9.752;2023-06-22T21:22:11;13.50;;;6.95;;
72559;SDS011;62987;52.382;9.752;2023-06-22T21:24:39;12.23;;;6.32;;
72559;SDS011;62987;52.382;9.752;2023-06-22T21:27:10;13.07;;;6.22;;
72559;SDS011;62987;52.382;9.752;2023-06-22T21:29:39;12.20;;;6.43;;
72559;SDS011;62987;52.382;9.752;2023-06-22T21:32:07;12.23;;;6.30;;
72559;SDS011;62987;52.382;9.752;2023-06-22T21:34:36;11.75;;;6.35;;
72559;SDS011;62987;52.382;9.752;2023-06-22T21:37:03;13.95;;;7.40;;
72559;SDS011;62987;52.382;9.752;2023-06-22T21:39:33;11.82;;;7.45;;
72559;SDS011;62987;52.382;9.752;2023-06-22T21:42:02;11.43;;;5.43;;
72559;SDS011;62987;52.382;9.752;2023-06-22T21:44:30;9.05;;;5.35;;
72559;SDS011;62987;52.382;9.752;2023-06-22T21:46:58;11.90;;;6.07;;
72559;SDS011;62987;52.382;9.752;2023-06-22T21:49:26;8.88;;;5.25;;
72559;SDS011;62987;52.382;9.752;2023-06-22T21:51:54;8.70;;;5.10;;
72559;SDS011;62987;52.382;9.752;2023-06-22T21:54:22;7.70;;;4.43;;
72559;SDS011;62987;52.382;9.752;2023-06-22T21:56:52;8.52;;;4.90;;
72559;SDS011;62987;52.382;9.752;2023-06-22T21:59:20;10.70;;;5.50;;
72559;SDS011;62987;52.382;9.752;2023-06-22T22:01:48;11.05;;;4.68;;
72559;SDS011;62987;52.382;9.752;2023-06-22T22:04:17;9.68;;;5.07;;
72559;SDS011;62987;52.382;9.752;2023-06-22T22:06:45;10.05;;;5.22;;
72559;SDS011;62987;52.382;9.752;2023-06-22T22:09:17;8.13;;;4.45;;
72559;SDS011;62987;52.382;9.752;2023-06-22T22:11:46;7.55;;;4.28;;
72559;SDS011;62987;52.382;9.752;2023-06-22T22:14:16;7.78;;;3.75;;
72559;SDS011;62987;52.382;9.752;2023-06-22T22:16:44;9.27;;;3.70;;
72559;SDS011;62987;52.382;9.752;2023-06-22T22:19:12;6.93;;;3.50;;
72559;SDS011;62987;52.382;9.752;2023-06-22T22:21:41;7.22;;;3.97;;
72559;SDS011;62987;52.382;9.752;2023-06-22T22:24:10;7.88;;;4.13;;
72559;SDS011;62987;52.382;9.752;2023-06-22T22:26:38;7.07;;;3.72;;
72559;SDS011;62987;52.382;9.752;2023-06-22T22:29:06;8.73;;;3.70;;
72559;SDS011;62987;52.382;9.752;2023-06-22T22:31:35;8.75;;;3.47;;
72559;SDS011;62987;52.382;9.752;2023-06-22T22:34:05;8.85;;;4.20;;
72559;SDS011;62987;52.382;9.752;2023-06-22T22:36:35;7.78;;;4.07;;
72559;SDS011;62987;52.382;9.752;2023-06-22T22:39:05;7.60;;;3.20;;
72559;SDS011;62987;52.382;9.752;2023-06-22T22:41:33;8.02;;;3.90;;
72559;SDS011;62987;52.382;9.752;2023-06-22T22:44:01;7.03;;;3.78;;
72559;SDS011;62987;52.382;9.752;2023-06-22T22:46:29;7.38;;;4.28;;
72559;SDS011;62987;52.382;9.752;2023-06-22T22:49:02;6.60;;;3.58;;
72559;SDS011;62987;52.382;9.752;2023-06-22T22:51:30;7.13;;;3.55;;
72559;SDS011;62987;52.382;9.752;2023-06-22T22:53:58;6.70;;;3.38;;
72559;SDS011;62987;52.382;9.752;2023-06-22T22:56:26;7.43;;;3.80;;
72559;SDS011;62987;52.382;9.752;2023-06-22T22:58:54;4.70;;;2.63;;
72559;SDS011;62987;52.382;9.752;2023-06-22T23:01:22;6.20;;;3.25;;
72559;SDS011;62987;52.382;9.752;2023-06-22T23:03:50;7.88;;;4.05;;
72559;SDS011;62987;52.382;9.752;2023-06-22T23:06:19;7.20;;;3.80;;
72559;SDS011;62987;52.382;9.752;2023-06-22T23:08:47;8.40;;;3.80;;
72559;SDS011;62987;52.382;9.752;2023-06-22T23:11:22;7.80;;;3.25;;
72559;SDS011;62987;52.382;9.752;2023-06-22T23:13:50;8.13;;;4.20;;
72559;SDS011;62987;52.382;9.752;2023-06-22T23:16:25;9.15;;;4.18;;
72559;SDS011;62987;52.382;9.752;2023-06-22T23:18:53;9.98;;;4.10;;
72559;SDS011;62987;52.382;9.752;2023-06-22T23:21:23;8.38;;;3.97;;
72559;SDS011;62987;52.382;9.752;2023-06-22T23:23:51;8.32;;;4.00;;
72559;SDS011;62987;52.382;9.752;2023-06-22T23:26:21;9.50;;;3.83;;
72559;SDS011;62987;52.382;9.752;2023-06-22T23:28:50;8.55;;;4.28;;
72559;SDS011;62987;52.382;9.752;2023-06-22T23:31:18;10.88;;;4.40;;
72559;SDS011;62987;52.382;9.752;2023-06-22T23:33:46;7.10;;;3.60;;
72559;SDS011;62987;52.382;9.752;2023-06-22T23:36:14;7.55;;;3.45;;
72559;SDS011;62987;52.382;9.752;2023-06-22T23:38:44;8.23;;;3.22;;
72559;SDS011;62987;52.382;9.752;2023-06-22T23:41:12;8.35;;;3.75;;
72559;SDS011;62987;52.382;9.752;2023-06-22T23:43:41;8.45;;;3.72;;
72559;SDS011;62987;52.382;9.752;2023-06-22T23:46:09;8.65;;;4.18;;
72559;SDS011;62987;52.382;9.752;2023-06-22T23:48:37;7.55;;;3.58;;
72559;SDS011;62987;52.382;9.752;2023-06-22T23:51:06;9.13;;;3.58;;
72559;SDS011;62987;52.382;9.752;2023-06-22T23:53:36;7.05;;;3.70;;
72559;SDS011;62987;52.382;9.752;2023-06-22T23:56:05;5.93;;;2.92;;
72559;SDS011;62987;52.382;9.752;2023-06-22T23:58:34;8.73;;;3.60;;
